Time;durP1;ratioP1;P1;durP2;ratioP2;P2;SDS_P1;SDS_P2;PMS_P1;PMS_P2;Temp;Humidity;BMP_temperature;BMP_pressure;BME280_temperature;BME280_humidity;BME280_pressure;Samples;Min_cycle;Max_cycle;Signal;HPM_P1;HPM_P2
2024/04/28 00:00:19;;;;;;;3.05;2.15;;;14.10;99.90;;;;;;5415206;26;19996;-73
2024/04/28 00:02:46;;;;;;;3.97;2.65;;;14.10;99.90;;;;;;5424127;26;20524;-73
2024/04/28 00:05:13;;;;;;;2.85;2.30;;;14.20;99.90;;;;;;5431541;26;20428;-73
2024/04/28 00:07:40;;;;;;;1.80;1.67;;;14.30;99.90;;;;;;5452212;26;19999;-73
2024/04/28 00:10:08;;;;;;;1.98;1.83;;;14.30;99.90;;;;;;5451703;26;20075;-73
2024/04/28 00:12:35;;;;;;;2.65;2.45;;;14.40;99.90;;;;;;5420504;26;20492;-73
2024/04/28 00:15:02;;;;;;;2.00;1.80;;;14.50;99.90;;;;;;5449743;26;20002;-73
2024/04/28 00:17:29;;;;;;;2.75;2.25;;;14.50;99.90;;;;;;5450691;26;20003;-73
2024/04/28 00:19:56;;;;;;;3.63;3.30;;;14.40;99.90;;;;;;5452123;26;20003;-73
2024/04/28 00:22:23;;;;;;;3.45;3.15;;;14.50;99.90;;;;;;5450961;26;20014;-73
2024/04/28 00:24:51;;;;;;;2.63;2.30;;;14.40;99.90;;;;;;5452198;26;20003;-73
2024/04/28 00:27:18;;;;;;;5.65;3.33;;;14.40;99.90;;;;;;5452208;26;20003;-73
2024/04/28 00:29:45;;;;;;;3.53;3.22;;;14.40;99.90;;;;;;5450387;26;20014;-73
2024/04/28 00:32:12;;;;;;;4.93;3.38;;;14.30;99.90;;;;;;5450128;26;20401;-73
2024/04/28 00:34:39;;;;;;;4.15;3.75;;;14.30;99.90;;;;;;5450370;26;20007;-73
2024/04/28 00:37:06;;;;;;;3.65;3.35;;;14.30;99.90;;;;;;5450062;26;19995;-73
2024/04/28 00:39:34;;;;;;;4.22;3.03;;;14.30;99.90;;;;;;5450346;26;20067;-73
2024/04/28 00:42:02;;;;;;;3.28;2.63;;;14.40;99.90;;;;;;5450380;26;20015;-73
2024/04/28 00:44:29;;;;;;;3.85;3.55;;;14.40;99.90;;;;;;5450407;26;20014;-73
2024/04/28 00:46:56;;;;;;;3.63;3.33;;;14.40;99.90;;;;;;5449941;26;19995;-73
2024/04/28 00:49:24;;;;;;;3.63;3.33;;;14.40;99.90;;;;;;5450117;26;20019;-73
2024/04/28 00:51:51;;;;;;;3.90;3.50;;;14.40;99.90;;;;;;5449863;26;19999;-73
2024/04/28 00:54:19;;;;;;;3.65;2.92;;;14.40;99.90;;;;;;5419846;26;20018;-73
2024/04/28 00:56:47;;;;;;;3.97;3.60;;;14.40;99.90;;;;;;5449948;26;20075;-73
2024/04/28 00:59:14;;;;;;;3.67;3.38;;;14.30;99.90;;;;;;5449567;26;20087;-73
2024/04/28 01:01:41;;;;;;;3.55;3.25;;;14.30;99.90;;;;;;5420131;26;20026;-73
2024/04/28 01:04:08;;;;;;;2.90;2.70;;;14.30;99.90;;;;;;5449645;26;20459;-72
2024/04/28 01:06:37;;;;;;;3.10;2.80;;;14.20;99.90;;;;;;5449760;26;20010;-73
2024/04/28 01:09:04;;;;;;;3.20;2.90;;;14.10;99.90;;;;;;5449395;26;20009;-73
2024/04/28 01:11:31;;;;;;;3.40;3.10;;;14.00;99.90;;;;;;5449731;26;20009;-73
2024/04/28 01:13:59;;;;;;;3.40;3.10;;;13.90;99.90;;;;;;5449675;26;20440;-73
2024/04/28 01:16:26;;;;;;;3.38;3.08;;;13.70;99.90;;;;;;5420407;26;20005;-73
2024/04/28 01:18:53;;;;;;;3.72;3.42;;;13.60;99.90;;;;;;5451843;26;20067;-73
2024/04/28 01:21:20;;;;;;;3.22;3.00;;;13.50;99.90;;;;;;5449379;26;19995;-73
2024/04/28 01:23:48;;;;;;;3.78;3.33;;;13.30;99.90;;;;;;5449646;26;20003;-73
2024/04/28 01:26:15;;;;;;;3.25;2.95;;;13.20;99.90;;;;;;5451118;26;19995;-73
2024/04/28 01:28:42;;;;;;;3.45;3.15;;;13.00;99.90;;;;;;5449525;26;19995;-73
2024/04/28 01:31:09;;;;;;;3.65;3.35;;;12.90;99.90;;;;;;5448988;26;19994;-73
2024/04/28 01:33:37;;;;;;;3.22;2.92;;;12.80;99.90;;;;;;5421176;26;19998;-73
2024/04/28 01:36:06;;;;;;;3.25;2.90;;;12.70;99.90;;;;;;5452752;26;20067;-73
2024/04/28 01:38:33;;;;;;;3.25;3.00;;;12.70;99.90;;;;;;5454586;26;20003;-73
2024/04/28 01:41:00;;;;;;;3.88;3.05;;;12.60;99.90;;;;;;5452825;26;20438;-73
2024/04/28 01:43:27;;;;;;;3.05;2.75;;;12.60;99.90;;;;;;5452482;26;20320;-73
2024/04/28 01:45:54;;;;;;;3.60;3.30;;;12.60;99.90;;;;;;5423048;26;20009;-73
2024/04/28 01:48:21;;;;;;;3.17;2.95;;;12.60;99.90;;;;;;5422445;26;20396;-73
2024/04/28 01:50:48;;;;;;;3.55;2.63;;;12.60;99.90;;;;;;5454451;26;20524;-73
2024/04/28 01:53:15;;;;;;;2.63;2.42;;;12.60;99.90;;;;;;5452667;26;20072;-73
2024/04/28 01:55:42;;;;;;;2.42;2.13;;;12.60;99.90;;;;;;5423199;26;20009;-73
2024/04/28 01:58:11;;;;;;;2.15;1.52;;;12.70;99.90;;;;;;5452302;26;20002;-73
2024/04/28 02:00:38;;;;;;;1.77;1.67;;;12.70;99.90;;;;;;5452889;26;20021;-73
2024/04/28 02:03:05;;;;;;;3.05;1.55;;;12.80;99.90;;;;;;5452410;26;20038;-73
2024/04/28 02:05:33;;;;;;;2.42;2.22;;;13.00;99.90;;;;;;5452716;26;20022;-73
2024/04/28 02:08:00;;;;;;;2.38;1.58;;;13.20;99.90;;;;;;5454489;26;20309;-73
2024/04/28 02:10:27;;;;;;;2.85;2.20;;;13.30;99.90;;;;;;5452071;26;20103;-73
2024/04/28 02:12:54;;;;;;;2.58;2.38;;;13.50;99.90;;;;;;5452128;26;20074;-73
2024/04/28 02:15:22;;;;;;;3.22;2.53;;;13.50;99.90;;;;;;5422333;26;20026;-73
2024/04/28 02:17:49;;;;;;;3.60;3.30;;;13.50;99.90;;;;;;5452120;26;20003;-73
2024/04/28 02:20:16;;;;;;;3.22;2.70;;;13.60;99.90;;;;;;5451877;26;19998;-73
2024/04/28 02:22:44;;;;;;;3.20;3.00;;;13.60;99.90;;;;;;5422551;26;20014;-73
2024/04/28 02:25:11;;;;;;;3.92;3.38;;;13.60;99.90;;;;;;5453666;26;19998;-73
2024/04/28 02:27:38;;;;;;;5.45;3.05;;;13.50;99.90;;;;;;5452100;26;20431;-73
2024/04/28 02:30:05;;;;;;;4.22;3.83;;;13.50;99.90;;;;;;5451892;26;20019;-73
2024/04/28 02:32:32;;;;;;;4.40;3.95;;;13.40;99.90;;;;;;5421994;26;19995;-73
2024/04/28 02:34:59;;;;;;;3.72;3.40;;;13.40;99.90;;;;;;5454193;26;20451;-73
2024/04/28 02:37:27;;;;;;;3.45;3.15;;;13.40;99.90;;;;;;5451662;26;20006;-73
2024/04/28 02:39:54;;;;;;;4.78;4.35;;;13.40;99.90;;;;;;5422496;26;19999;-73
2024/04/28 02:42:21;;;;;;;3.05;2.75;;;13.50;99.90;;;;;;5451969;26;19995;-73
2024/04/28 02:45:03;;;;;;;4.05;3.67;;;13.50;99.90;;;;;;5421640;26;20009;-73
2024/04/28 02:50:17;;;;;;;3.80;3.33;;;13.50;99.90;;;;;;5512560;26;19998;-73
2024/04/28 02:52:44;;;;;;;5.05;4.15;;;13.50;99.90;;;;;;5451638;26;19999;-73
2024/04/28 02:55:11;;;;;;;3.75;3.47;;;13.50;99.90;;;;;;5451849;26;19999;-73
2024/04/28 02:57:38;;;;;;;3.72;3.42;;;13.50;99.90;;;;;;5421709;26;20027;-73
2024/04/28 03:00:06;;;;;;;3.50;3.20;;;13.50;99.90;;;;;;5451515;26;20068;-73
2024/04/28 03:02:33;;;;;;;3.95;3.55;;;13.50;99.90;;;;;;5415013;26;20011;-73
2024/04/28 03:05:00;;;;;;;3.75;3.42;;;13.50;99.90;;;;;;5402477;26;20011;-73
2024/04/28 03:07:28;;;;;;;4.45;4.05;;;13.50;99.90;;;;;;5451292;26;19998;-73
2024/04/28 03:09:55;;;;;;;4.75;3.40;;;13.40;99.90;;;;;;5421663;26;19999;-73
2024/04/28 03:12:22;;;;;;;3.85;3.50;;;13.40;99.90;;;;;;5451182;26;20095;-73
2024/04/28 03:14:49;;;;;;;4.75;4.30;;;13.40;99.90;;;;;;5421360;26;20072;-73
2024/04/28 03:17:17;;;;;;;4.30;3.88;;;13.30;99.90;;;;;;5451291;26;20320;-73
2024/04/28 03:19:44;;;;;;;5.07;4.60;;;13.30;99.90;;;;;;5421662;26;19998;-73
2024/04/28 03:22:11;;;;;;;5.82;3.92;;;13.20;99.90;;;;;;5421652;26;20006;-73
2024/04/28 03:24:39;;;;;;;4.38;3.97;;;13.10;99.90;;;;;;5421706;26;20010;-73
2024/04/28 03:27:07;;;;;;;5.38;4.88;;;13.00;99.90;;;;;;5451577;26;19995;-73
2024/04/28 03:29:34;;;;;;;5.00;4.45;;;12.90;99.90;;;;;;5450735;26;20009;-73
2024/04/28 03:32:01;;;;;;;4.30;3.80;;;12.80;99.90;;;;;;5453015;26;19999;-73
2024/04/28 03:34:29;;;;;;;4.97;4.45;;;12.70;99.90;;;;;;5450832;26;20026;-73
2024/04/28 03:36:56;;;;;;;6.55;5.25;;;12.70;99.90;;;;;;5451237;26;20007;-73
2024/04/28 03:39:23;;;;;;;6.18;5.45;;;12.60;99.90;;;;;;5420934;26;20006;-73
2024/04/28 03:41:51;;;;;;;5.78;4.72;;;12.50;99.90;;;;;;5451029;26;20100;-73
2024/04/28 03:44:18;;;;;;;6.10;5.10;;;12.50;99.90;;;;;;5450989;26;19998;-73
2024/04/28 03:46:45;;;;;;;5.45;4.88;;;12.40;99.90;;;;;;5450717;26;20079;-73
2024/04/28 03:49:12;;;;;;;5.82;4.82;;;12.40;99.90;;;;;;5421299;26;20006;-73
2024/04/28 03:51:40;;;;;;;5.40;5.00;;;12.40;99.90;;;;;;5420953;26;20006;-73
2024/04/28 03:54:07;;;;;;;4.90;4.50;;;12.40;99.90;;;;;;5451021;26;20006;-73
2024/04/28 03:56:35;;;;;;;4.85;4.38;;;12.30;99.90;;;;;;5421334;26;19995;-73
2024/04/28 03:59:02;;;;;;;5.07;4.57;;;12.30;99.90;;;;;;5421337;26;19999;-73
2024/04/28 04:01:29;;;;;;;5.20;4.70;;;12.40;99.90;;;;;;5450673;26;20332;-73
2024/04/28 04:03:56;;;;;;;5.30;4.90;;;12.30;99.90;;;;;;5421131;26;20011;-73
2024/04/28 04:06:23;;;;;;;4.88;4.47;;;12.30;99.90;;;;;;5421195;26;20451;-73
2024/04/28 04:08:51;;;;;;;4.80;4.30;;;12.30;99.90;;;;;;5450808;26;20281;-73
2024/04/28 04:11:18;;;;;;;5.53;4.15;;;12.20;99.90;;;;;;5451042;26;19994;-73
2024/04/28 04:13:45;;;;;;;7.50;4.50;;;12.10;99.90;;;;;;5450122;26;20006;-73
2024/04/28 04:16:12;;;;;;;6.18;5.38;;;12.10;99.90;;;;;;5421109;26;20034;-73
2024/04/28 04:18:39;;;;;;;5.30;4.80;;;12.10;99.90;;;;;;5452062;26;20010;-73
2024/04/28 04:21:06;;;;;;;5.78;5.20;;;12.10;99.90;;;;;;5452738;26;19995;-73
2024/04/28 04:23:33;;;;;;;5.68;5.18;;;12.10;99.90;;;;;;5420363;26;20522;-73
2024/04/28 04:26:00;;;;;;;5.10;4.60;;;12.10;99.90;;;;;;5452258;26;19999;-73
2024/04/28 04:28:28;;;;;;;6.13;4.30;;;12.10;99.90;;;;;;5450375;26;20377;-73
2024/04/28 04:30:55;;;;;;;4.90;4.50;;;12.10;99.90;;;;;;5390900;26;20003;-73
2024/04/28 04:33:22;;;;;;;5.50;4.97;;;12.10;99.90;;;;;;5450116;26;19998;-73
2024/04/28 04:35:49;;;;;;;4.38;3.97;;;12.10;99.90;;;;;;5449882;26;20034;-73
2024/04/28 04:38:16;;;;;;;5.03;4.63;;;12.20;99.90;;;;;;5450205;26;20018;-73
2024/04/28 04:40:43;;;;;;;5.97;5.38;;;12.20;99.90;;;;;;5449934;26;20158;-73
2024/04/28 04:43:10;;;;;;;6.03;4.82;;;12.30;99.90;;;;;;5420484;26;19999;-73
2024/04/28 04:45:38;;;;;;;4.72;4.32;;;12.40;99.90;;;;;;5420421;26;20002;-73
2024/04/28 04:48:06;;;;;;;4.38;3.97;;;12.40;99.90;;;;;;5450478;26;20373;-73
2024/04/28 04:50:33;;;;;;;6.07;5.35;;;12.50;99.90;;;;;;5450537;26;19994;-73
2024/04/28 04:53:01;;;;;;;4.53;4.13;;;12.50;99.90;;;;;;5449962;26;19998;-73
2024/04/28 04:55:29;;;;;;;5.28;4.80;;;12.50;99.90;;;;;;5420595;26;19995;-73
2024/04/28 04:57:56;;;;;;;6.30;4.22;;;12.60;99.90;;;;;;5449906;26;19994;-72
2024/04/28 05:00:24;;;;;;;4.07;3.60;;;12.60;99.90;;;;;;5446636;26;20031;-72
2024/04/28 05:02:51;;;;;;;3.92;3.50;;;12.70;99.90;;;;;;5419026;26;20075;-73
2024/04/28 05:05:19;;;;;;;4.45;4.05;;;12.70;99.90;;;;;;5419346;26;19999;-74
2024/04/28 05:07:47;;;;;;;4.68;4.28;;;12.80;99.90;;;;;;5448549;26;20489;-73
2024/04/28 05:10:14;;;;;;;4.85;4.45;;;12.80;99.90;;;;;;5420026;26;20014;-73
2024/04/28 05:12:42;;;;;;;4.82;3.92;;;12.90;99.90;;;;;;5419620;26;19999;-73
2024/04/28 05:15:09;;;;;;;4.85;4.45;;;12.90;99.90;;;;;;5419970;26;20469;-73
2024/04/28 05:17:36;;;;;;;4.95;4.47;;;13.00;99.90;;;;;;5449696;26;20011;-73
2024/04/28 05:20:04;;;;;;;4.80;4.07;;;13.00;99.90;;;;;;5449468;26;20345;-72
2024/04/28 05:22:31;;;;;;;3.67;3.38;;;13.10;99.90;;;;;;5449383;26;19999;-72
2024/04/28 05:24:59;;;;;;;3.72;2.85;;;13.20;99.90;;;;;;5419962;26;19995;-72
2024/04/28 05:27:26;;;;;;;3.53;3.22;;;13.30;99.90;;;;;;5449470;26;20316;-73
2024/04/28 05:29:53;;;;;;;3.33;3.03;;;13.40;99.90;;;;;;5451001;26;20015;-72
2024/04/28 05:32:20;;;;;;;3.45;3.20;;;13.40;99.90;;;;;;5449463;26;19998;-73
2024/04/28 05:34:48;;;;;;;3.33;3.10;;;13.60;99.60;;;;;;5448940;26;19995;-73
2024/04/28 05:37:15;;;;;;;2.25;1.95;;;13.80;98.90;;;;;;5449689;26;20005;-73
2024/04/28 05:39:42;;;;;;;6.57;3.30;;;14.10;98.30;;;;;;5449315;26;20019;-72
2024/04/28 05:42:10;;;;;;;2.45;1.83;;;14.40;95.90;;;;;;5419391;26;20006;-73
2024/04/28 05:44:39;;;;;;;3.58;2.00;;;14.60;95.70;;;;;;5449107;26;20438;-73
2024/04/28 05:47:06;;;;;;;2.78;2.13;;;14.70;94.30;;;;;;5419013;26;19999;-73
2024/04/28 05:49:33;;;;;;;4.43;1.85;;;14.80;94.30;;;;;;5450845;26;20002;-72
2024/04/28 05:52:00;;;;;;;2.38;2.17;;;14.80;94.10;;;;;;5448642;26;19999;-72
2024/04/28 05:54:29;;;;;;;2.63;2.42;;;14.90;93.30;;;;;;5419147;26;20078;-73
2024/04/28 05:56:56;;;;;;;2.22;2.03;;;14.90;92.50;;;;;;5448562;26;19999;-72
2024/04/28 05:59:24;;;;;;;3.28;2.40;;;15.00;92.90;;;;;;5419303;26;20013;-72
2024/04/28 06:01:51;;;;;;;3.00;2.45;;;15.00;93.00;;;;;;5448440;26;20451;-73
2024/04/28 06:04:18;;;;;;;1.83;1.50;;;15.10;92.80;;;;;;5448905;26;19994;-73
2024/04/28 06:06:47;;;;;;;2.53;2.33;;;15.10;92.40;;;;;;5448351;26;20002;-73
2024/04/28 06:09:14;;;;;;;2.97;2.35;;;15.20;91.90;;;;;;5444569;26;20326;-72
2024/04/28 06:11:41;;;;;;;1.70;1.60;;;15.20;92.00;;;;;;5414909;26;20000;-73
2024/04/28 06:14:08;;;;;;;2.85;2.58;;;15.30;92.50;;;;;;5449437;26;19999;-72
2024/04/28 06:16:35;;;;;;;2.90;2.42;;;15.40;92.30;;;;;;5410178;26;20010;-72
2024/04/28 06:19:02;;;;;;;1.98;1.77;;;15.60;91.40;;;;;;5448116;26;19999;-72
2024/04/28 06:21:30;;;;;;;1.80;1.67;;;15.70;91.50;;;;;;5421184;26;20009;-72
2024/04/28 06:23:59;;;;;;;4.28;2.30;;;15.80;91.40;;;;;;5451465;26;20021;-72
2024/04/28 06:26:29;;;;;;;1.85;1.73;;;16.00;91.10;;;;;;5451625;26;20071;-72
2024/04/28 06:28:56;;;;;;;2.47;2.28;;;16.10;90.90;;;;;;5421862;26;20039;-72
2024/04/28 06:31:23;;;;;;;2.55;1.60;;;16.10;91.00;;;;;;5451791;26;20007;-72
2024/04/28 06:33:51;;;;;;;1.33;1.17;;;16.10;90.80;;;;;;5421878;26;19999;-72
2024/04/28 06:36:18;;;;;;;1.73;1.63;;;16.20;91.10;;;;;;5451742;26;20010;-72
2024/04/28 06:38:46;;;;;;;2.17;2.00;;;16.20;90.70;;;;;;5422170;26;20328;-72
2024/04/28 06:41:13;;;;;;;1.85;1.42;;;16.30;90.40;;;;;;5482183;26;20006;-73
2024/04/28 06:43:41;;;;;;;2.10;1.50;;;16.20;90.30;;;;;;5422027;26;20079;-72
2024/04/28 06:46:08;;;;;;;3.03;1.67;;;16.20;90.20;;;;;;5451980;26;20010;-72
2024/04/28 06:48:37;;;;;;;2.15;1.92;;;16.20;90.00;;;;;;5451573;26;20352;-72
2024/04/28 06:51:06;;;;;;;1.17;1.08;;;16.30;90.30;;;;;;5451401;26;20022;-72
2024/04/28 06:53:33;;;;;;;2.63;1.63;;;16.40;90.20;;;;;;5451470;26;20005;-72
2024/04/28 06:56:00;;;;;;;2.30;2.10;;;16.40;90.20;;;;;;5421522;26;19994;-73
2024/04/28 06:58:27;;;;;;;1.88;1.13;;;16.50;89.40;;;;;;5451821;26;19998;-73
2024/04/28 07:00:54;;;;;;;1.15;0.90;;;16.50;89.00;;;;;;5450972;26;20463;-72
2024/04/28 07:03:21;;;;;;;3.35;2.30;;;16.60;89.60;;;;;;5451223;26;19999;-72
2024/04/28 07:05:49;;;;;;;2.45;1.70;;;16.70;88.50;;;;;;5451274;26;19999;-72
2024/04/28 07:08:16;;;;;;;2.00;1.80;;;16.80;87.90;;;;;;5451065;26;20006;-72
2024/04/28 07:10:43;;;;;;;2.47;1.65;;;16.90;87.50;;;;;;5451323;26;20013;-72
2024/04/28 07:13:11;;;;;;;1.85;1.30;;;17.20;87.80;;;;;;5451040;26;19999;-72
2024/04/28 07:15:38;;;;;;;2.28;1.60;;;17.40;87.30;;;;;;5421560;26;20076;-72
2024/04/28 07:18:08;;;;;;;1.80;1.70;;;17.70;86.80;;;;;;5481366;26;20398;-72
2024/04/28 07:20:37;;;;;;;1.48;1.10;;;17.90;86.20;;;;;;5451105;26;20003;-72
2024/04/28 07:23:04;;;;;;;1.33;1.20;;;18.10;86.30;;;;;;5451169;26;20005;-72
2024/04/28 07:25:33;;;;;;;1.67;1.42;;;18.40;85.90;;;;;;5421880;26;19999;-72
2024/04/28 07:28:00;;;;;;;2.78;1.38;;;18.50;85.60;;;;;;5451063;26;20019;-72
2024/04/28 07:30:31;;;;;;;1.23;1.13;;;18.80;84.50;;;;;;5422206;26;19999;-72
2024/04/28 07:32:58;;;;;;;2.35;2.00;;;19.00;84.40;;;;;;5450244;26;20349;-72
2024/04/28 07:35:25;;;;;;;1.80;1.38;;;19.00;81.70;;;;;;5421390;26;19998;-72
2024/04/28 07:37:53;;;;;;;1.90;1.52;;;18.90;81.60;;;;;;5451023;26;19995;-72
2024/04/28 07:40:20;;;;;;;1.67;1.58;;;18.70;82.50;;;;;;5450579;26;20025;-72
2024/04/28 07:42:47;;;;;;;2.72;1.88;;;18.70;82.30;;;;;;5421052;26;20099;-72
2024/04/28 07:45:14;;;;;;;1.40;1.30;;;18.60;83.30;;;;;;5450491;26;20031;-73
2024/04/28 07:47:43;;;;;;;2.15;1.27;;;18.60;83.60;;;;;;5450741;26;20035;-73
2024/04/28 07:50:11;;;;;;;3.58;1.63;;;18.50;84.50;;;;;;5450345;26;20331;-73
2024/04/28 07:52:38;;;;;;;3.10;1.08;;;18.70;84.10;;;;;;5450434;26;19999;-73
2024/04/28 07:55:06;;;;;;;1.35;1.17;;;18.80;84.70;;;;;;5450394;26;20035;-73
2024/04/28 07:57:33;;;;;;;1.90;1.70;;;18.80;83.30;;;;;;5421015;26;19999;-73
2024/04/28 08:00:00;;;;;;;1.23;1.13;;;18.90;83.40;;;;;;5420799;26;20002;-73
2024/04/28 08:02:38;;;;;;;1.90;1.30;;;18.90;82.90;;;;;;5452564;26;19998;-73
2024/04/28 08:05:06;;;;;;;1.98;1.30;;;19.00;83.60;;;;;;5420780;26;20006;-73
2024/04/28 08:07:33;;;;;;;2.17;1.48;;;19.20;83.50;;;;;;5452685;26;19995;-73
2024/04/28 08:10:00;;;;;;;1.33;1.23;;;19.30;82.50;;;;;;5420917;26;20049;-73
2024/04/28 08:12:28;;;;;;;1.75;1.30;;;19.40;82.40;;;;;;5450772;26;20007;-73
2024/04/28 08:14:55;;;;;;;1.20;1.10;;;19.40;81.20;;;;;;5450914;26;20431;-73
2024/04/28 08:17:22;;;;;;;4.80;1.63;;;19.40;81.30;;;;;;5450328;26;19995;-73
2024/04/28 08:19:49;;;;;;;1.25;1.15;;;19.40;82.00;;;;;;5450299;26;20017;-73
2024/04/28 08:22:17;;;;;;;1.88;1.63;;;19.50;80.90;;;;;;5420386;26;20444;-73
2024/04/28 08:24:48;;;;;;;2.65;1.98;;;19.40;81.30;;;;;;5450217;26;20312;-73
2024/04/28 08:27:17;;;;;;;2.22;1.70;;;19.40;81.50;;;;;;5450387;26;20014;-73
2024/04/28 08:29:44;;;;;;;0.90;0.85;;;19.40;81.10;;;;;;5452030;26;20452;-73
2024/04/28 08:32:11;;;;;;;3.28;1.33;;;19.30;81.50;;;;;;5450166;26;20079;-73
2024/04/28 08:34:38;;;;;;;1.70;1.60;;;19.30;82.30;;;;;;5450158;26;19999;-73
2024/04/28 08:37:05;;;;;;;1.23;1.02;;;19.40;82.70;;;;;;5450296;26;19999;-72
2024/04/28 08:39:33;;;;;;;3.05;1.35;;;19.80;82.50;;;;;;5450173;26;19999;-72
2024/04/28 08:42:00;;;;;;;1.88;1.15;;;20.60;81.50;;;;;;5450508;26;19995;-73
2024/04/28 08:44:28;;;;;;;2.58;1.10;;;20.80;79.80;;;;;;5450607;26;20043;-73
2024/04/28 08:46:56;;;;;;;1.20;1.10;;;21.10;79.20;;;;;;5450296;26;19997;-74
2024/04/28 08:49:25;;;;;;;3.20;1.10;;;21.50;79.10;;;;;;5451482;26;20520;-73
2024/04/28 08:51:55;;;;;;;1.85;1.27;;;22.10;78.70;;;;;;5450553;26;20060;-73
2024/04/28 08:54:24;;;;;;;4.10;1.80;;;22.40;75.50;;;;;;5449909;26;20013;-73
2024/04/28 08:56:52;;;;;;;1.13;1.02;;;22.50;75.30;;;;;;5450401;26;20067;-74
2024/04/28 08:59:19;;;;;;;1.20;1.10;;;22.50;74.80;;;;;;5449545;26;20072;-74
2024/04/28 09:01:49;;;;;;;2.50;0.93;;;22.40;75.20;;;;;;5449910;26;20006;-74
2024/04/28 09:04:18;;;;;;;1.70;1.20;;;22.40;75.40;;;;;;5451245;26;20003;-75
2024/04/28 09:06:53;;;;;;;2.30;0.95;;;22.40;76.40;;;;;;5451621;26;20072;-75
2024/04/28 09:09:20;;;;;;;2.80;0.90;;;22.80;75.30;;;;;;5451336;26;20080;-75
2024/04/28 09:11:47;;;;;;;3.17;1.30;;;22.80;74.30;;;;;;5451517;26;20002;-75
2024/04/28 09:14:14;;;;;;;0.98;0.98;;;22.80;72.20;;;;;;5449427;26;20048;-74
2024/04/28 09:16:42;;;;;;;2.05;1.02;;;22.70;73.40;;;;;;5451419;26;19999;-74
2024/04/28 09:19:10;;;;;;;1.38;1.25;;;22.40;74.70;;;;;;5449520;26;19999;-74
2024/04/28 09:21:37;;;;;;;1.55;1.45;;;22.00;73.90;;;;;;5451457;26;20006;-74
2024/04/28 09:24:05;;;;;;;1.00;0.85;;;21.40;74.00;;;;;;5449805;26;20346;-75
2024/04/28 09:26:32;;;;;;;1.52;1.02;;;20.80;76.10;;;;;;5448751;26;20757;-73
2024/04/28 09:28:59;;;;;;;2.05;1.23;;;20.60;76.10;;;;;;5449979;26;20013;-73
2024/04/28 09:31:36;;;;;;;0.98;0.90;;;20.30;76.70;;;;;;5449830;26;20111;-74
2024/04/28 09:34:03;;;;;;;1.73;1.33;;;20.10;77.70;;;;;;5450933;26;20071;-74
2024/04/28 09:36:30;;;;;;;2.53;1.27;;;20.00;78.80;;;;;;5450730;26;20013;-74
2024/04/28 09:39:05;;;;;;;0.68;0.68;;;20.40;77.30;;;;;;5449093;26;19999;-74
2024/04/28 09:41:40;;;;;;;1.23;1.10;;;20.50;77.20;;;;;;5450799;26;19999;-74
2024/04/28 09:44:07;;;;;;;1.52;1.00;;;20.50;77.70;;;;;;5419372;26;20072;-74
2024/04/28 09:46:36;;;;;;;2.10;0.95;;;20.50;78.40;;;;;;5450633;26;19999;-74
2024/04/28 09:49:06;;;;;;;2.97;1.25;;;20.50;78.60;;;;;;5449196;26;20346;-74
2024/04/28 09:51:36;;;;;;;1.88;1.10;;;21.00;76.20;;;;;;5450659;26;20325;-74
2024/04/28 09:54:05;;;;;;;2.85;1.02;;;21.20;73.60;;;;;;5451223;26;20010;-75
2024/04/28 09:56:32;;;;;;;0.80;0.70;;;21.20;73.70;;;;;;5422362;26;19999;-74
2024/04/28 09:59:01;;;;;;;1.48;1.20;;;21.30;73.70;;;;;;5423059;26;20083;-74
2024/04/28 10:01:29;;;;;;;0.90;0.90;;;21.40;72.10;;;;;;5452649;26;20031;-74
2024/04/28 10:03:58;;;;;;;1.95;1.10;;;21.50;73.50;;;;;;5452926;26;19999;-74
2024/04/28 10:06:26;;;;;;;1.80;0.75;;;21.40;73.30;;;;;;5454002;26;20003;-74
2024/04/28 10:08:55;;;;;;;2.90;0.85;;;21.10;74.00;;;;;;5454759;26;19995;-74
2024/04/28 10:11:24;;;;;;;1.38;0.88;;;20.90;74.70;;;;;;5453913;26;20045;-74
2024/04/28 10:13:54;;;;;;;1.70;0.93;;;20.70;75.40;;;;;;5452121;26;20007;-74
2024/04/28 10:16:22;;;;;;;1.15;1.08;;;21.10;75.70;;;;;;5453919;26;19999;-74
2024/04/28 10:18:52;;;;;;;0.90;0.77;;;21.40;74.30;;;;;;5454164;26;20335;-74
2024/04/28 10:21:28;;;;;;;0.80;0.73;;;21.30;75.50;;;;;;5451851;26;20010;-74
2024/04/28 10:24:02;;;;;;;0.93;0.93;;;21.60;73.80;;;;;;5452230;26;20018;-74
2024/04/28 10:26:31;;;;;;;2.05;1.40;;;21.40;73.20;;;;;;5453590;26;20013;-74
2024/04/28 10:28:59;;;;;;;1.92;0.80;;;21.10;73.40;;;;;;5454004;26;20464;-74
2024/04/28 10:31:26;;;;;;;1.35;1.15;;;20.70;73.80;;;;;;5453723;26;20410;-74
2024/04/28 10:34:02;;;;;;;1.20;1.10;;;21.00;73.80;;;;;;5452064;26;20393;-74
2024/04/28 10:36:30;;;;;;;1.73;0.90;;;21.30;72.40;;;;;;5453691;26;20071;-74
2024/04/28 10:38:58;;;;;;;1.23;0.70;;;21.30;72.40;;;;;;5422886;26;20067;-74
2024/04/28 10:41:25;;;;;;;2.30;0.88;;;21.20;71.10;;;;;;5453612;26;20056;-74
2024/04/28 10:43:53;;;;;;;2.67;1.10;;;20.80;72.50;;;;;;5454108;26;20026;-74
2024/04/28 10:46:20;;;;;;;1.80;1.10;;;20.40;72.70;;;;;;5453544;26;20432;-75
2024/04/28 10:48:47;;;;;;;1.48;0.75;;;20.10;73.70;;;;;;5451615;26;19995;-75
2024/04/28 10:51:15;;;;;;;0.75;0.68;;;20.60;73.10;;;;;;5452218;26;20068;-75
2024/04/28 10:53:42;;;;;;;1.45;0.77;;;21.10;72.70;;;;;;5451960;26;20009;-75
2024/04/28 10:56:09;;;;;;;1.33;0.90;;;21.40;71.80;;;;;;5451928;26;19998;-75
2024/04/28 10:58:38;;;;;;;2.97;0.80;;;21.70;71.00;;;;;;5451720;26;20014;-75
2024/04/28 11:01:06;;;;;;;0.63;0.63;;;22.10;70.30;;;;;;5421737;26;19999;-75
2024/04/28 11:03:34;;;;;;;2.38;0.70;;;22.40;69.00;;;;;;5451426;26;20034;-75
2024/04/28 11:06:01;;;;;;;1.08;0.88;;;22.90;68.50;;;;;;5450936;26;20022;-75
2024/04/28 11:08:29;;;;;;;1.65;1.05;;;23.10;67.80;;;;;;5453223;26;20074;-75
2024/04/28 11:10:56;;;;;;;1.65;0.90;;;23.00;67.50;;;;;;5451751;26;20011;-75
2024/04/28 11:13:24;;;;;;;0.85;0.70;;;22.40;67.30;;;;;;5451588;26;20017;-75
2024/04/28 11:15:51;;;;;;;0.68;0.68;;;22.10;67.80;;;;;;5421368;26;19998;-75
2024/04/28 11:18:18;;;;;;;1.13;0.60;;;22.10;68.60;;;;;;5453390;26;20389;-75
2024/04/28 11:20:45;;;;;;;1.17;0.55;;;22.10;68.50;;;;;;5453143;26;20320;-75
2024/04/28 11:23:14;;;;;;;2.67;0.90;;;21.90;68.50;;;;;;5451666;26;20023;-75
2024/04/28 11:25:42;;;;;;;0.93;0.93;;;21.60;69.20;;;;;;5453185;26;20027;-75
2024/04/28 11:28:10;;;;;;;1.60;0.98;;;21.20;69.80;;;;;;5421553;26;19995;-75
2024/04/28 11:30:39;;;;;;;1.73;0.60;;;20.80;69.70;;;;;;5452986;26;20440;-75
2024/04/28 11:33:07;;;;;;;0.70;0.40;;;20.40;71.40;;;;;;5451356;26;20094;-75
2024/04/28 11:35:35;;;;;;;0.88;0.60;;;20.10;71.60;;;;;;5450831;26;19999;-75
2024/04/28 11:38:02;;;;;;;0.93;0.77;;;20.00;71.40;;;;;;5452915;26;20078;-74
2024/04/28 11:40:29;;;;;;;1.05;0.63;;;19.70;72.90;;;;;;5452870;26;19998;-74
2024/04/28 11:42:56;;;;;;;0.70;0.70;;;19.50;73.20;;;;;;5451161;26;19999;-74
2024/04/28 11:45:23;;;;;;;1.48;0.93;;;19.50;74.30;;;;;;5452815;26;20431;-75
2024/04/28 11:47:50;;;;;;;0.65;0.65;;;19.60;74.00;;;;;;5452496;26;20010;-75
2024/04/28 11:50:17;;;;;;;6.28;1.05;;;19.70;73.70;;;;;;5450935;26;20050;-75
2024/04/28 11:52:44;;;;;;;1.05;0.90;;;19.80;73.90;;;;;;5451727;26;20045;-74
2024/04/28 11:55:11;;;;;;;1.08;0.95;;;20.00;73.30;;;;;;5407398;26;20076;-75
2024/04/28 11:57:38;;;;;;;1.20;1.08;;;20.10;72.80;;;;;;5425519;26;20004;-74
2024/04/28 12:00:06;;;;;;;1.73;0.75;;;20.10;72.20;;;;;;5448790;26;20071;-75
2024/04/28 12:02:39;;;;;;;2.25;0.93;;;20.20;72.40;;;;;;5450567;26;20010;-75
2024/04/28 12:05:07;;;;;;;0.38;0.35;;;20.30;72.00;;;;;;5448982;26;20075;-75
2024/04/28 12:07:34;;;;;;;1.08;0.88;;;20.40;72.80;;;;;;5449424;26;20063;-75
2024/04/28 12:10:02;;;;;;;1.02;0.65;;;21.10;72.60;;;;;;5449142;26;20007;-75
2024/04/28 12:12:29;;;;;;;0.82;0.60;;;21.70;69.80;;;;;;5450381;26;20005;-75
2024/04/28 12:14:56;;;;;;;0.65;0.55;;;21.80;69.70;;;;;;5450147;26;20433;-76
2024/04/28 12:17:26;;;;;;;0.32;0.32;;;21.70;70.40;;;;;;5420095;26;20007;-75
2024/04/28 12:19:54;;;;;;;1.05;0.50;;;21.70;71.20;;;;;;5450081;26;20066;-76
2024/04/28 12:22:21;;;;;;;0.60;0.55;;;21.70;69.80;;;;;;5481001;26;20036;-75
2024/04/28 12:24:48;;;;;;;1.23;0.65;;;21.80;69.60;;;;;;5452020;26;20075;-75
2024/04/28 12:27:15;;;;;;;1.05;0.60;;;22.20;69.10;;;;;;5450449;26;19999;-76
2024/04/28 12:29:44;;;;;;;3.35;0.90;;;22.30;68.90;;;;;;5452010;26;20075;-75
2024/04/28 12:32:15;;;;;;;0.60;0.60;;;21.90;68.10;;;;;;5452221;26;20006;-76
2024/04/28 12:34:42;;;;;;;1.35;0.73;;;21.40;69.20;;;;;;5420175;26;20458;-75
2024/04/28 12:37:09;;;;;;;0.70;0.50;;;21.00;70.20;;;;;;5450466;26;20317;-76
2024/04/28 12:39:37;;;;;;;0.43;0.43;;;20.90;70.70;;;;;;5452514;26;20509;-75
2024/04/28 12:42:04;;;;;;;0.85;0.30;;;21.00;69.50;;;;;;5452261;26;20006;-75
2024/04/28 12:44:31;;;;;;;1.25;1.15;;;21.10;69.20;;;;;;5450447;26;20003;-75
2024/04/28 12:46:58;;;;;;;1.35;0.60;;;21.40;68.80;;;;;;5450078;26;19995;-76
2024/04/28 12:49:25;;;;;;;0.38;0.32;;;21.50;66.60;;;;;;5450428;26;19994;-75
2024/04/28 12:51:52;;;;;;;1.88;0.47;;;21.60;67.10;;;;;;5452073;26;20007;-75